Skip to main content Skip to accessibility
This website is not compatible with your web browser. You should install a newer browser. If you live in Jersey and need help upgrading call the States of Jersey web team on 440099.
Homegov.je

L'înformâtion et les sèrvices publyis pouor I'Île dé Jèrri

CI Airfield TAFs

JERSEY - EGJJ

231707Z 2318/2403 22011KT 9999 FEW030 BKN045 BECMG 2319/2321 5000 RA BKN015 PROB30 TEMPO 2320/2401 3000 +RA BKN010CB BECMG 2322/2324 35016G27KT BECMG 2401/2403 33010KT 9999 NSW FEW020=

GUERNSEY - EGJB

231707Z 2318/2403 22011KT 9999 FEW030 BKN045 BECMG 2318/2320 5000 RA BKN015 PROB30 TEMPO 2319/2324 3000 +RA BKN010CB BECMG 2321/2323 35016G27KT BECMG 2400/2402 33010KT 9999 NSW FEW020=

ALDERNEY - EGJA

231707Z 2318/2403 Nil

Back to top
rating button